Time;durP1;ratioP1;P1;durP2;ratioP2;P2;SDS_P1;SDS_P2;PMS_P1;PMS_P2;Temp;Humidity;BMP_temperature;BMP_pressure;BME280_temperature;BME280_humidity;BME280_pressure;Samples;Min_cycle;Max_cycle;Signal;HPM_P1;HPM_P2
2023/01/18 00:00:41;;;;;;;5.53;5.28;;;6.20;99.90;;;;;;5210443;22;20245;-92
2023/01/18 00:03:00;;;;;;;6.57;6.32;;;6.20;99.90;;;;;;5211278;22;20364;-92
2023/01/18 00:05:21;;;;;;;4.47;4.32;;;6.20;99.90;;;;;;5231786;22;20022;-92
2023/01/18 00:07:41;;;;;;;5.22;4.85;;;6.20;99.90;;;;;;5224436;22;20087;-94
2023/01/18 00:10:01;;;;;;;4.82;4.53;;;6.20;99.90;;;;;;5224317;22;20030;-93
2023/01/18 00:12:21;;;;;;;3.47;3.38;;;6.10;99.90;;;;;;5224341;22;20034;-93
2023/01/18 00:14:41;;;;;;;3.50;3.30;;;5.90;99.90;;;;;;5223228;22;20392;-94
2023/01/18 00:17:02;;;;;;;4.00;3.80;;;5.80;99.90;;;;;;5224326;22;20026;-92
2023/01/18 00:19:22;;;;;;;3.28;2.97;;;5.70;99.90;;;;;;5232827;22;20049;-92
2023/01/18 00:21:43;;;;;;;3.40;3.30;;;5.60;99.90;;;;;;5232900;22;20260;-92
2023/01/18 00:24:03;;;;;;;3.50;3.35;;;5.50;99.90;;;;;;5209305;22;20299;-93
2023/01/18 00:26:23;;;;;;;3.38;3.38;;;5.50;99.90;;;;;;5200712;22;20071;-93
2023/01/18 00:28:43;;;;;;;2.97;2.97;;;5.50;99.90;;;;;;5213230;22;20353;-93
2023/01/18 00:31:15;;;;;;;3.50;3.50;;;5.40;99.90;;;;;;5200706;22;20079;-93
2023/01/18 00:33:36;;;;;;;3.25;3.22;;;5.40;99.90;;;;;;5228189;22;20076;-93
2023/01/18 00:35:58;;;;;;;4.78;4.68;;;5.20;99.90;;;;;;5232678;22;20022;-92
2023/01/18 00:38:18;;;;;;;3.60;3.60;;;5.20;99.90;;;;;;5231794;22;20026;-91
2023/01/18 00:40:37;;;;;;;3.42;3.33;;;5.10;99.90;;;;;;5209273;22;20249;-91
2023/01/18 00:45:35;;;;;;;5.93;5.72;;;5.00;99.90;;;;;;5234022;22;20075;-92
2023/01/18 00:47:57;;;;;;;3.20;3.10;;;4.90;99.90;;;;;;5210303;22;20026;-92
2023/01/18 00:50:18;;;;;;;3.22;3.13;;;5.00;99.90;;;;;;5188961;22;20027;-92
2023/01/18 00:52:45;;;;;;;3.55;3.55;;;4.90;99.90;;;;;;5203054;22;20061;-92
2023/01/18 00:55:05;;;;;;;4.93;4.82;;;5.00;99.90;;;;;;5200556;22;20341;-91
2023/01/18 00:57:26;;;;;;;3.92;3.92;;;4.90;99.90;;;;;;5209178;22;20092;-92
2023/01/18 00:59:46;;;;;;;3.83;3.83;;;4.90;99.90;;;;;;5217443;22;20301;-91
2023/01/18 01:02:06;;;;;;;4.57;4.38;;;4.90;99.90;;;;;;5224051;22;20057;-91
2023/01/18 01:07:05;;;;;;;3.75;3.75;;;4.90;99.90;;;;;;5216082;22;20026;-92
2023/01/18 01:09:28;;;;;;;4.80;4.50;;;5.00;99.90;;;;;;5224502;22;20026;-90
2023/01/18 01:27:40;;;;;;;5.00;4.80;;;5.10;99.90;;;;;;5224114;22;20022;-92
2023/01/18 01:30:02;;;;;;;4.80;4.43;;;5.10;99.90;;;;;;5202931;22;20285;-93
2023/01/18 01:32:23;;;;;;;6.20;4.80;;;5.20;99.90;;;;;;5223097;22;20206;-91
2023/01/18 01:34:43;;;;;;;4.18;4.18;;;5.20;99.90;;;;;;5209105;22;20230;-93
2023/01/18 01:37:04;;;;;;;7.32;4.88;;;5.20;99.90;;;;;;5208968;22;20228;-92
2023/01/18 01:39:24;;;;;;;5.78;5.57;;;5.20;99.90;;;;;;5212867;22;20336;-92
2023/01/18 01:41:43;;;;;;;5.68;5.57;;;5.20;99.90;;;;;;5225777;22;20065;-92
2023/01/18 01:44:23;;;;;;;4.20;4.10;;;5.20;99.90;;;;;;5208905;22;20023;-92
2023/01/18 01:46:46;;;;;;;3.95;3.70;;;5.20;99.90;;;;;;5204707;22;20022;-92
2023/01/18 01:49:11;;;;;;;6.80;6.38;;;5.20;99.90;;;;;;5218062;22;20042;-91
2023/01/18 01:51:32;;;;;;;4.40;4.00;;;5.10;99.90;;;;;;5185060;22;20053;-92
2023/01/18 01:53:53;;;;;;;3.75;3.33;;;5.40;99.90;;;;;;5210033;22;20026;-92
2023/01/18 01:56:14;;;;;;;6.78;6.38;;;5.40;99.90;;;;;;5191144;22;20357;-92
2023/01/18 01:58:35;;;;;;;4.55;4.35;;;5.40;99.90;;;;;;5212394;22;20066;-92
2023/01/18 02:00:55;;;;;;;3.40;3.30;;;5.30;99.90;;;;;;5188980;22;20330;-92
2023/01/18 02:03:19;;;;;;;4.05;3.85;;;5.40;99.90;;;;;;5213456;22;20023;-93
2023/01/18 02:05:42;;;;;;;4.13;4.00;;;5.40;99.90;;;;;;5185730;22;20346;-91
2023/01/18 02:08:04;;;;;;;3.90;3.78;;;5.70;99.90;;;;;;5225919;22;20026;-93
2023/01/18 02:10:25;;;;;;;3.85;3.55;;;5.60;99.90;;;;;;5223823;22;20249;-93
2023/01/18 02:12:47;;;;;;;4.85;4.70;;;5.50;99.90;;;;;;5232280;22;20026;-92
2023/01/18 02:15:08;;;;;;;3.38;3.28;;;5.60;99.90;;;;;;5222484;22;20026;-92
2023/01/18 02:17:40;;;;;;;4.68;4.47;;;5.70;99.90;;;;;;5199891;22;20027;-91
2023/01/18 02:20:18;;;;;;;4.38;3.97;;;5.80;99.90;;;;;;5209731;22;20238;-93
2023/01/18 02:23:06;;;;;;;3.97;3.67;;;5.90;99.90;;;;;;5210650;22;20106;-92
2023/01/18 02:25:56;;;;;;;3.65;3.55;;;5.80;99.90;;;;;;5213556;22;20357;-92
2023/01/18 02:28:32;;;;;;;3.25;3.10;;;5.90;99.90;;;;;;5194233;22;20050;-92
2023/01/18 02:31:18;;;;;;;4.88;4.78;;;5.90;99.90;;;;;;5230789;22;20061;-92
2023/01/18 02:34:15;;;;;;;4.65;4.28;;;5.90;99.90;;;;;;5232001;22;20068;-92
2023/01/18 02:37:11;;;;;;;7.45;4.82;;;5.90;99.90;;;;;;5178381;22;20024;-92
2023/01/18 02:40:03;;;;;;;4.85;4.65;;;6.00;99.90;;;;;;5212876;22;20326;-93
2023/01/18 02:47:54;;;;;;;3.03;2.90;;;6.40;99.90;;;;;;5223496;22;20064;-92
2023/01/18 02:50:26;;;;;;;4.15;3.83;;;6.40;99.90;;;;;;5208344;22;20026;-92
2023/01/18 02:52:48;;;;;;;3.65;3.50;;;6.30;99.90;;;;;;5214363;22;20061;-92
2023/01/18 02:55:19;;;;;;;4.18;3.97;;;6.40;99.90;;;;;;5223515;22;20121;-92
2023/01/18 02:57:39;;;;;;;3.50;3.33;;;6.40;99.90;;;;;;5230859;22;20042;-92
2023/01/18 03:00:02;;;;;;;3.92;3.65;;;6.60;99.90;;;;;;5223412;22;20055;-92
2023/01/18 03:02:25;;;;;;;4.43;4.10;;;6.90;99.90;;;;;;5230963;22;20025;-92
2023/01/18 03:04:56;;;;;;;;;;;6.90;99.90;;;;;;5230547;22;20022;-91
2023/01/18 03:07:27;;;;;;;5.93;3.95;;;6.90;99.90;;;;;;5199857;22;20237;-92
2023/01/18 03:09:48;;;;;;;4.20;3.72;;;6.70;99.90;;;;;;5200321;22;20022;-92
2023/01/18 03:12:25;;;;;;;3.70;3.42;;;6.60;99.90;;;;;;5223254;22;20058;-91
2023/01/18 03:14:48;;;;;;;5.50;3.65;;;6.50;99.90;;;;;;5223307;22;20065;-91
2023/01/18 03:17:18;;;;;;;3.20;3.10;;;6.50;99.90;;;;;;5213954;22;20073;-91
2023/01/18 03:20:08;;;;;;;6.47;3.80;;;6.70;99.90;;;;;;5188868;22;20031;-92
2023/01/18 03:25:20;;;;;;;4.95;4.57;;;6.50;99.90;;;;;;5226025;22;20057;-91
2023/01/18 03:35:40;;;;;;;3.03;2.97;;;6.50;99.90;;;;;;5224260;22;20086;-91
2023/01/18 03:38:00;;;;;;;2.95;2.85;;;6.50;99.90;;;;;;5185640;22;20353;-91
2023/01/18 03:41:15;;;;;;;3.80;3.53;;;6.50;99.90;;;;;;5227489;22;20333;-93
2023/01/18 03:43:41;;;;;;;3.45;3.22;;;6.40;99.90;;;;;;5233075;22;20045;-92
2023/01/18 03:46:03;;;;;;;3.60;3.40;;;6.30;99.90;;;;;;5231952;22;20035;-92
2023/01/18 03:48:23;;;;;;;6.30;4.05;;;6.30;99.90;;;;;;5224335;22;20050;-91
2023/01/18 03:50:52;;;;;;;3.45;3.15;;;6.50;99.90;;;;;;5217228;22;20361;-92
2023/01/18 03:53:17;;;;;;;6.40;3.95;;;6.40;99.90;;;;;;5210876;22;20029;-92
2023/01/18 03:55:51;;;;;;;4.85;4.53;;;6.40;99.90;;;;;;5232848;22;20022;-91
2023/01/18 03:58:16;;;;;;;4.18;4.07;;;6.40;99.90;;;;;;5216523;22;20026;-91
2023/01/18 04:00:37;;;;;;;4.28;3.95;;;6.40;99.90;;;;;;5221307;22;20022;-91
2023/01/18 04:02:58;;;;;;;5.00;4.60;;;6.50;99.90;;;;;;5206067;22;20026;-91
2023/01/18 04:05:18;;;;;;;4.55;4.20;;;6.50;99.90;;;;;;5200782;22;20111;-92
2023/01/18 04:07:38;;;;;;;4.43;4.07;;;6.40;99.90;;;;;;5222806;22;20022;-91
2023/01/18 04:09:59;;;;;;;4.85;4.40;;;6.30;99.90;;;;;;5209262;22;20237;-91
2023/01/18 04:12:19;;;;;;;4.85;4.05;;;6.20;99.90;;;;;;5225172;22;20038;-91
2023/01/18 04:14:39;;;;;;;4.30;4.20;;;6.10;99.90;;;;;;5234975;22;20132;-91
2023/01/18 04:16:59;;;;;;;4.22;4.03;;;6.20;99.90;;;;;;5227531;22;20096;-91
2023/01/18 04:19:19;;;;;;;4.68;4.28;;;6.10;99.90;;;;;;5226705;22;20056;-91
2023/01/18 04:21:39;;;;;;;4.30;4.00;;;6.00;99.90;;;;;;5200585;22;20065;-92
2023/01/18 04:23:59;;;;;;;3.78;3.47;;;5.80;99.90;;;;;;5210333;22;20031;-90
2023/01/18 04:26:19;;;;;;;5.05;4.68;;;5.80;99.90;;;;;;5201414;22;20433;-91
2023/01/18 04:28:39;;;;;;;7.80;3.75;;;5.70;99.90;;;;;;5224173;22;20057;-92
2023/01/18 04:30:59;;;;;;;3.70;3.60;;;5.70;99.90;;;;;;5232771;22;20031;-91
2023/01/18 04:33:21;;;;;;;3.78;3.53;;;5.70;99.90;;;;;;5224243;22;20272;-92
2023/01/18 04:35:42;;;;;;;4.53;4.43;;;5.60;99.90;;;;;;5224051;22;20026;-92
2023/01/18 04:38:01;;;;;;;8.43;4.60;;;5.60;99.90;;;;;;5212937;22;20022;-92
2023/01/18 04:40:21;;;;;;;4.25;3.90;;;5.40;99.90;;;;;;5232682;22;20214;-92
2023/01/18 04:42:41;;;;;;;4.43;4.13;;;5.30;99.90;;;;;;5223167;22;20091;-92
2023/01/18 04:45:01;;;;;;;5.55;4.93;;;5.20;99.90;;;;;;5184629;22;20026;-91
2023/01/18 04:47:21;;;;;;;5.47;4.38;;;5.10;99.90;;;;;;5212373;22;20309;-92
2023/01/18 04:49:41;;;;;;;5.63;5.38;;;5.00;99.90;;;;;;5224208;22;20045;-91
2023/01/18 04:52:00;;;;;;;4.95;4.65;;;4.90;99.90;;;;;;5210333;22;20022;-92
2023/01/18 04:54:20;;;;;;;3.78;3.67;;;4.90;99.90;;;;;;5226123;22;20329;-92
2023/01/18 04:56:41;;;;;;;4.82;4.45;;;4.90;99.90;;;;;;5224119;22;20060;-91
2023/01/18 04:59:01;;;;;;;8.95;5.00;;;4.90;99.90;;;;;;5232672;22;20046;-92
2023/01/18 05:01:22;;;;;;;11.75;4.63;;;4.90;99.90;;;;;;5200514;22;20342;-91
2023/01/18 05:03:42;;;;;;;6.00;4.10;;;4.80;99.90;;;;;;5200947;22;20065;-92
2023/01/18 05:06:10;;;;;;;5.00;4.40;;;4.80;99.90;;;;;;5220998;22;20333;-91
2023/01/18 05:08:30;;;;;;;3.97;3.75;;;4.80;99.90;;;;;;5223983;22;20042;-92
2023/01/18 05:10:50;;;;;;;4.05;3.85;;;4.90;99.90;;;;;;5200510;22;20045;-90
2023/01/18 05:13:10;;;;;;;5.80;4.35;;;4.80;99.90;;;;;;5199307;22;20025;-92
2023/01/18 05:15:33;;;;;;;4.78;4.63;;;4.90;99.90;;;;;;5200328;22;20023;-91
2023/01/18 05:17:53;;;;;;;7.55;4.70;;;5.00;99.90;;;;;;5222402;22;20298;-90
2023/01/18 05:20:13;;;;;;;7.20;5.68;;;4.90;99.90;;;;;;5200417;22;20107;-91
2023/01/18 05:22:33;;;;;;;4.53;4.43;;;4.80;99.90;;;;;;5209125;22;20026;-90
2023/01/18 05:24:53;;;;;;;8.20;5.60;;;4.70;99.90;;;;;;5201103;22;20035;-91
2023/01/18 05:27:14;;;;;;;4.65;4.47;;;4.80;99.90;;;;;;5232742;22;20031;-92
2023/01/18 05:29:34;;;;;;;5.80;5.00;;;4.80;99.90;;;;;;5222912;22;20063;-92
2023/01/18 05:31:54;;;;;;;5.50;5.00;;;4.80;99.90;;;;;;5224013;22;20084;-91
2023/01/18 05:34:14;;;;;;;6.55;5.95;;;4.80;99.90;;;;;;5200426;22;20230;-93
2023/01/18 05:36:34;;;;;;;10.25;5.50;;;4.90;99.90;;;;;;5208766;22;20057;-92
2023/01/18 05:38:54;;;;;;;6.72;4.78;;;4.90;99.90;;;;;;5214848;22;20334;-93
2023/01/18 05:41:14;;;;;;;5.68;5.25;;;4.80;99.90;;;;;;5192455;22;20027;-93
2023/01/18 05:43:34;;;;;;;10.38;5.57;;;4.80;99.90;;;;;;5200401;22;20066;-92
2023/01/18 05:45:55;;;;;;;5.20;4.63;;;4.80;99.90;;;;;;5221305;22;20061;-91
2023/01/18 05:48:16;;;;;;;6.03;4.18;;;4.80;99.90;;;;;;5219250;22;20041;-90
2023/01/18 05:50:40;;;;;;;5.40;5.13;;;4.80;99.90;;;;;;5223751;22;20066;-92
2023/01/18 05:53:00;;;;;;;6.72;6.32;;;4.80;99.90;;;;;;5214984;22;20034;-93
2023/01/18 05:55:21;;;;;;;4.30;4.18;;;4.80;99.90;;;;;;5218056;22;20076;-91
2023/01/18 05:57:41;;;;;;;5.65;5.25;;;4.80;99.90;;;;;;5232518;22;20025;-91
2023/01/18 06:00:01;;;;;;;6.25;5.57;;;4.80;99.90;;;;;;5222664;22;20061;-92
2023/01/18 06:02:23;;;;;;;7.70;4.97;;;4.80;99.90;;;;;;5223679;22;20341;-90
2023/01/18 06:04:43;;;;;;;5.82;5.15;;;4.70;99.90;;;;;;5232476;22;20067;-91
2023/01/18 06:07:03;;;;;;;8.15;5.47;;;4.80;99.90;;;;;;5234530;22;20029;-92
2023/01/18 06:09:22;;;;;;;10.23;9.13;;;4.70;99.90;;;;;;5225777;22;20279;-93
2023/01/18 06:11:43;;;;;;;4.60;4.40;;;4.70;99.90;;;;;;5230596;22;20061;-92
2023/01/18 06:14:03;;;;;;;7.78;4.90;;;4.70;99.90;;;;;;5201459;22;20027;-92
2023/01/18 06:16:23;;;;;;;8.40;4.80;;;4.60;99.90;;;;;;5200109;22;20349;-92
2023/01/18 06:18:43;;;;;;;10.00;8.85;;;4.50;99.90;;;;;;5201403;22;20034;-92
2023/01/18 06:21:03;;;;;;;7.07;6.55;;;4.50;99.90;;;;;;5200373;22;20087;-92
2023/01/18 06:23:23;;;;;;;10.68;9.77;;;4.50;99.90;;;;;;5209589;22;20357;-92
2023/01/18 06:25:43;;;;;;;7.38;6.53;;;4.50;99.90;;;;;;5222607;22;20062;-87
2023/01/18 06:28:04;;;;;;;6.88;6.40;;;4.50;99.90;;;;;;5203254;22;20027;-87
2023/01/18 06:30:24;;;;;;;5.18;4.80;;;4.50;99.90;;;;;;5223579;22;20046;-87
2023/01/18 06:32:44;;;;;;;6.03;5.53;;;4.50;99.90;;;;;;5199866;22;20065;-87
2023/01/18 06:35:04;;;;;;;8.27;7.45;;;4.60;99.90;;;;;;5199995;22;20023;-87
2023/01/18 06:37:24;;;;;;;5.65;5.25;;;4.70;99.90;;;;;;5203868;22;20094;-87
2023/01/18 06:39:44;;;;;;;6.57;6.00;;;4.70;99.90;;;;;;5223652;22;20218;-87
2023/01/18 06:42:04;;;;;;;6.95;6.25;;;4.70;99.90;;;;;;5223515;22;20026;-87
2023/01/18 06:44:24;;;;;;;6.05;5.55;;;4.70;99.90;;;;;;5219981;22;20023;-87
2023/01/18 06:46:44;;;;;;;4.53;4.32;;;4.70;99.90;;;;;;5212862;22;20038;-87
2023/01/18 06:49:04;;;;;;;5.43;4.97;;;4.80;99.90;;;;;;5217744;22;20026;-87
2023/01/18 06:51:24;;;;;;;5.28;4.88;;;4.90;99.90;;;;;;5217137;22;20022;-86
2023/01/18 06:53:44;;;;;;;6.35;6.07;;;4.90;99.90;;;;;;5223325;22;20074;-87
2023/01/18 06:56:08;;;;;;;10.02;7.63;;;4.90;99.90;;;;;;5199738;22;20234;-87
2023/01/18 06:58:31;;;;;;;7.68;7.15;;;4.80;99.90;;;;;;5205069;22;20342;-86
2023/01/18 07:00:59;;;;;;;6.97;6.13;;;4.80;99.90;;;;;;5199809;22;20111;-86
2023/01/18 07:03:19;;;;;;;7.70;7.13;;;4.70;99.90;;;;;;5222300;22;20025;-86
2023/01/18 07:05:39;;;;;;;5.65;5.20;;;4.60;99.90;;;;;;5199038;22;20075;-86
2023/01/18 07:07:59;;;;;;;6.68;6.10;;;4.60;99.90;;;;;;5226929;22;20023;-86
2023/01/18 07:10:19;;;;;;;8.90;6.28;;;4.60;99.90;;;;;;5226431;22;20042;-87
2023/01/18 07:12:38;;;;;;;6.30;5.80;;;4.60;99.90;;;;;;5209518;22;20087;-86
2023/01/18 07:14:58;;;;;;;5.80;5.28;;;4.60;99.90;;;;;;5179436;22;20066;-86
2023/01/18 07:17:24;;;;;;;5.35;4.90;;;4.50;99.90;;;;;;5203136;22;20366;-86
2023/01/18 07:19:43;;;;;;;6.43;5.70;;;4.60;99.90;;;;;;5233035;22;20329;-86
2023/01/18 07:22:04;;;;;;;4.82;4.30;;;4.50;99.90;;;;;;5224449;22;20127;-86
2023/01/18 07:24:23;;;;;;;4.32;4.22;;;4.40;99.90;;;;;;5200839;22;20207;-86
2023/01/18 07:26:44;;;;;;;4.90;4.63;;;4.40;99.90;;;;;;5197585;22;20027;-86
2023/01/18 07:29:04;;;;;;;5.95;5.60;;;4.40;99.90;;;;;;5217009;22;20021;-87
2023/01/18 07:31:24;;;;;;;5.10;5.00;;;4.40;99.90;;;;;;5233030;22;20034;-86
2023/01/18 07:33:44;;;;;;;3.80;3.60;;;4.40;99.90;;;;;;5232939;22;20022;-86
2023/01/18 07:36:09;;;;;;;4.90;4.60;;;4.30;99.90;;;;;;5209334;22;20062;-87
2023/01/18 07:38:29;;;;;;;5.47;5.20;;;4.30;99.90;;;;;;5213763;22;20038;-86
2023/01/18 07:40:50;;;;;;;6.13;5.18;;;4.30;99.90;;;;;;5232964;22;20065;-86
2023/01/18 07:43:09;;;;;;;4.78;4.47;;;4.30;99.90;;;;;;5224376;22;20048;-87
2023/01/18 07:45:29;;;;;;;5.78;5.57;;;4.30;99.90;;;;;;5233046;22;20022;-86
2023/01/18 07:47:50;;;;;;;8.65;8.05;;;4.30;99.90;;;;;;5215800;22;20026;-86
2023/01/18 07:50:12;;;;;;;7.38;6.80;;;4.30;99.90;;;;;;5218299;22;20078;-86
2023/01/18 07:52:32;;;;;;;8.65;8.13;;;4.40;99.90;;;;;;5224393;22;20084;-86
2023/01/18 07:54:52;;;;;;;5.88;5.55;;;4.40;99.90;;;;;;5224312;22;20022;-86
2023/01/18 07:57:12;;;;;;;5.85;5.50;;;4.50;99.90;;;;;;5232811;22;20045;-86
2023/01/18 07:59:32;;;;;;;6.63;6.10;;;4.50;99.90;;;;;;5231886;22;20046;-86
2023/01/18 08:01:52;;;;;;;6.05;5.65;;;4.40;99.90;;;;;;5227554;22;20061;-86
2023/01/18 08:04:12;;;;;;;6.00;5.45;;;4.30;99.90;;;;;;5231104;22;20037;-86
2023/01/18 08:06:33;;;;;;;6.90;6.60;;;4.30;99.90;;;;;;5209386;22;20338;-86
2023/01/18 08:08:55;;;;;;;6.85;6.63;;;4.40;99.90;;;;;;5203926;22;20041;-86
2023/01/18 08:11:16;;;;;;;6.85;6.45;;;4.40;99.90;;;;;;5200603;22;20038;-86
2023/01/18 08:13:36;;;;;;;7.13;6.93;;;4.50;99.90;;;;;;5210605;22;20063;-86
2023/01/18 08:15:59;;;;;;;7.20;6.90;;;4.50;99.90;;;;;;5209993;22;20050;-86
2023/01/18 08:18:19;;;;;;;6.10;5.97;;;4.50;99.90;;;;;;5224240;22;20253;-86
2023/01/18 08:20:43;;;;;;;5.25;4.93;;;4.50;99.90;;;;;;5227569;22;20038;-86
2023/01/18 08:23:02;;;;;;;5.72;5.53;;;4.50;99.90;;;;;;5207727;22;20041;-86
2023/01/18 08:25:30;;;;;;;7.63;5.70;;;4.70;99.90;;;;;;5200634;22;20065;-86
2023/01/18 08:27:50;;;;;;;7.93;7.32;;;4.80;99.90;;;;;;5200592;22;20046;-86
2023/01/18 08:30:10;;;;;;;7.43;6.95;;;4.80;99.90;;;;;;5212486;22;20046;-86
2023/01/18 08:32:30;;;;;;;7.93;7.43;;;4.90;99.90;;;;;;5223147;22;20073;-87
2023/01/18 08:34:50;;;;;;;6.00;5.53;;;5.00;99.90;;;;;;5232732;22;20364;-87
2023/01/18 08:37:10;;;;;;;6.00;5.63;;;5.10;99.90;;;;;;5231593;22;20030;-87
2023/01/18 08:39:31;;;;;;;5.38;5.25;;;5.20;99.90;;;;;;5207915;22;20106;-87
2023/01/18 08:41:50;;;;;;;6.53;5.85;;;5.20;99.90;;;;;;5225216;22;20025;-87
2023/01/18 08:44:10;;;;;;;6.65;6.10;;;5.20;99.90;;;;;;5224100;22;20065;-87
2023/01/18 08:46:30;;;;;;;5.22;4.93;;;5.30;99.90;;;;;;5200731;22;20038;-87
2023/01/18 08:48:52;;;;;;;5.00;4.78;;;5.40;99.90;;;;;;5205817;22;20026;-87
2023/01/18 08:51:12;;;;;;;6.75;6.47;;;5.40;99.90;;;;;;5209022;22;20215;-87
2023/01/18 08:53:31;;;;;;;6.82;6.25;;;5.60;99.90;;;;;;5209861;22;20027;-87
2023/01/18 08:55:51;;;;;;;4.80;4.60;;;5.70;99.90;;;;;;5197781;22;20022;-87
2023/01/18 08:58:11;;;;;;;5.25;4.95;;;5.80;99.90;;;;;;5212875;22;20046;-87
2023/01/18 09:00:32;;;;;;;4.68;4.57;;;5.90;99.90;;;;;;5200612;22;20238;-87
2023/01/18 09:02:52;;;;;;;4.38;4.28;;;5.80;99.90;;;;;;5210189;22;20042;-87
2023/01/18 09:05:12;;;;;;;5.38;5.10;;;5.80;99.90;;;;;;5201596;22;20288;-87
2023/01/18 09:07:32;;;;;;;4.30;4.20;;;5.60;99.90;;;;;;5209041;22;20096;-87
2023/01/18 09:09:52;;;;;;;5.18;4.93;;;5.60;99.90;;;;;;5210498;22;20023;-87
2023/01/18 09:12:12;;;;;;;5.28;4.97;;;5.60;99.90;;;;;;5231481;22;20022;-87
2023/01/18 09:14:33;;;;;;;5.90;5.40;;;5.60;99.90;;;;;;5224092;22;20022;-87
2023/01/18 09:16:53;;;;;;;5.75;4.60;;;5.70;99.90;;;;;;5222731;22;20049;-87
2023/01/18 09:19:13;;;;;;;4.28;4.18;;;5.70;99.90;;;;;;5200393;22;20041;-87
2023/01/18 09:21:33;;;;;;;5.22;5.00;;;5.50;99.90;;;;;;5200323;22;20114;-87
2023/01/18 09:23:53;;;;;;;5.30;4.78;;;5.50;99.90;;;;;;5208527;22;20084;-87
2023/01/18 09:26:19;;;;;;;4.10;4.00;;;5.50;99.90;;;;;;5211633;22;20060;-87
2023/01/18 09:28:39;;;;;;;5.47;5.18;;;5.50;99.90;;;;;;5232555;22;20072;-87
2023/01/18 09:31:04;;;;;;;5.20;5.10;;;5.40;99.90;;;;;;5232664;22;20026;-87
2023/01/18 09:33:23;;;;;;;5.00;4.55;;;5.20;99.90;;;;;;5209390;22;20023;-87
2023/01/18 09:35:59;;;;;;;5.03;4.93;;;5.20;99.90;;;;;;5200335;22;20026;-87
2023/01/18 09:38:20;;;;;;;4.65;4.47;;;5.20;99.90;;;;;;5208777;22;20027;-87
2023/01/18 09:40:42;;;;;;;4.78;4.65;;;5.10;99.90;;;;;;5221564;22;20038;-87
2023/01/18 09:43:13;;;;;;;5.03;4.93;;;5.10;99.90;;;;;;5223895;22;20027;-87
2023/01/18 09:45:34;;;;;;;4.88;4.78;;;5.10;99.90;;;;;;5234525;22;20075;-86
2023/01/18 09:48:19;;;;;;;5.00;4.78;;;5.00;99.90;;;;;;5226503;22;20372;-86
2023/01/18 09:50:43;;;;;;;4.90;4.80;;;5.10;99.90;;;;;;5203600;22;20062;-86
2023/01/18 09:53:48;;;;;;;4.65;4.55;;;5.20;99.90;;;;;;5216953;22;20026;-87
2023/01/18 09:56:18;;;;;;;4.97;4.78;;;5.30;99.90;;;;;;5201747;22;20098;-86
2023/01/18 09:58:45;;;;;;;5.88;5.47;;;5.30;99.90;;;;;;5205646;22;20027;-86
2023/01/18 10:01:14;;;;;;;5.68;5.13;;;5.30;99.90;;;;;;5205443;22;20073;-86
2023/01/18 10:03:42;;;;;;;4.72;4.63;;;5.30;99.90;;;;;;5212694;22;20054;-86
2023/01/18 10:06:08;;;;;;;5.28;5.18;;;5.20;99.90;;;;;;5233344;22;20207;-86
2023/01/18 10:08:28;;;;;;;4.75;4.38;;;5.10;99.90;;;;;;5202803;22;20026;-86
2023/01/18 10:11:11;;;;;;;6.80;6.38;;;4.90;99.90;;;;;;5223928;22;20044;-87
2023/01/18 10:13:55;;;;;;;6.03;5.82;;;5.00;99.90;;;;;;5223718;22;20022;-86
2023/01/18 10:16:15;;;;;;;6.00;5.90;;;4.90;99.90;;;;;;5223637;22;20210;-86
2023/01/18 10:18:44;;;;;;;6.25;5.82;;;4.80;99.90;;;;;;5222591;22;20054;-86
2023/01/18 10:21:06;;;;;;;6.03;5.88;;;4.70;99.90;;;;;;5232234;22;20022;-86
2023/01/18 10:23:41;;;;;;;6.65;6.53;;;4.70;99.90;;;;;;5232278;22;20060;-86
2023/01/18 10:26:03;;;;;;;6.88;6.50;;;4.70;99.90;;;;;;5200220;22;20357;-86
2023/01/18 10:28:49;;;;;;;7.13;7.00;;;4.70;99.90;;;;;;5199974;22;20038;-86
2023/01/18 10:31:30;;;;;;;5.78;5.57;;;4.60;99.90;;;;;;5204717;22;20253;-86
2023/01/18 10:33:57;;;;;;;5.22;5.22;;;4.60;99.90;;;;;;5191322;22;20258;-86
2023/01/18 10:36:24;;;;;;;4.78;4.78;;;4.60;99.90;;;;;;5211597;22;20328;-86
2023/01/18 10:38:46;;;;;;;5.47;5.38;;;4.50;99.90;;;;;;5208124;22;20023;-86
2023/01/18 10:41:17;;;;;;;5.10;5.10;;;4.40;99.90;;;;;;5226440;22;20383;-86
2023/01/18 10:43:38;;;;;;;5.28;5.18;;;4.30;99.90;;;;;;5223434;22;20021;-86
2023/01/18 10:45:58;;;;;;;4.80;4.70;;;4.30;99.90;;;;;;5189755;22;20074;-86
2023/01/18 10:48:32;;;;;;;6.55;6.45;;;4.30;99.90;;;;;;5222587;22;20329;-86
2023/01/18 10:50:55;;;;;;;6.78;6.50;;;4.20;99.90;;;;;;5227930;22;20023;-86
2023/01/18 10:53:23;;;;;;;5.20;4.70;;;4.30;99.90;;;;;;5226368;22;20329;-86
2023/01/18 10:56:04;;;;;;;5.75;5.65;;;4.40;99.90;;;;;;5188907;22;20070;-86
2023/01/18 10:58:31;;;;;;;5.13;5.07;;;4.50;99.90;;;;;;5224492;22;20104;-86
2023/01/18 11:00:55;;;;;;;5.60;5.50;;;4.60;99.90;;;;;;5224628;22;20079;-86
2023/01/18 11:03:15;;;;;;;8.10;7.90;;;4.60;99.90;;;;;;5197847;22;20334;-86
2023/01/18 11:05:43;;;;;;;8.00;7.40;;;4.60;99.90;;;;;;5213249;22;20030;-86
2023/01/18 11:08:22;;;;;;;16.17;13.43;;;4.70;99.90;;;;;;5195150;22;20031;-86
2023/01/18 11:10:42;;;;;;;7.85;7.53;;;4.70;99.90;;;;;;5232866;22;20226;-86
2023/01/18 11:13:02;;;;;;;6.47;6.38;;;4.70;99.90;;;;;;5224581;22;20038;-86
2023/01/18 11:15:26;;;;;;;7.78;7.57;;;4.80;99.90;;;;;;5209446;22;20026;-86
2023/01/18 11:17:59;;;;;;;6.43;6.13;;;4.80;99.90;;;;;;5226140;22;20025;-86
2023/01/18 11:20:19;;;;;;;;;;;5.00;99.90;;;;;;5234417;22;20022;-86
2023/01/18 11:22:53;;;;;;;3.75;3.75;;;5.20;99.90;;;;;;5188060;22;19918;-86
2023/01/18 11:25:16;;;;;;;4.38;4.30;;;5.40;99.90;;;;;;5206201;22;20050;-86
2023/01/18 11:27:41;;;;;;;3.78;3.75;;;5.60;99.90;;;;;;5216475;22;20070;-86
2023/01/18 11:30:00;;;;;;;3.85;3.83;;;5.70;99.90;;;;;;5231915;22;20037;-86
2023/01/18 11:32:29;;;;;;;3.72;3.72;;;5.80;99.90;;;;;;5222812;22;20026;-86
2023/01/18 11:34:52;;;;;;;4.22;4.03;;;5.90;99.90;;;;;;5214046;22;20022;-86
2023/01/18 11:37:45;;;;;;;4.53;4.43;;;6.00;99.90;;;;;;5217914;22;20030;-86
2023/01/18 11:40:21;;;;;;;4.85;4.75;;;6.10;99.90;;;;;;5108196;23;20068;-86
2023/01/18 11:42:41;;;;;;;3.20;3.10;;;6.10;99.90;;;;;;5108264;23;20029;-86
2023/01/18 11:45:09;;;;;;;5.63;5.53;;;6.20;99.90;;;;;;5100268;23;20359;-86
2023/01/18 11:47:56;;;;;;;4.20;4.10;;;6.20;99.90;;;;;;5100193;23;20332;-86
2023/01/18 11:50:24;;;;;;;4.07;4.05;;;6.20;99.90;;;;;;5128859;23;20109;-86
2023/01/18 11:52:55;;;;;;;4.10;4.10;;;6.10;99.90;;;;;;5129203;23;20228;-86
2023/01/18 11:55:46;;;;;;;4.55;4.45;;;6.30;99.90;;;;;;5100055;23;20453;-87
2023/01/18 11:58:25;;;;;;;4.60;4.53;;;6.60;99.90;;;;;;5087394;23;20165;-86
2023/01/18 12:00:57;;;;;;;4.50;4.40;;;6.90;99.90;;;;;;5108126;23;20028;-86
2023/01/18 12:03:23;;;;;;;3.60;3.60;;;7.10;99.90;;;;;;5100059;23;20085;-86
2023/01/18 12:06:04;;;;;;;2.58;2.58;;;7.10;99.90;;;;;;5129354;23;20438;-86
2023/01/18 12:08:30;;;;;;;5.15;5.05;;;7.00;99.90;;;;;;5087466;23;20396;-87
2023/01/18 12:11:01;;;;;;;3.17;3.13;;;7.10;99.90;;;;;;5099954;23;20025;-86
2023/01/18 12:13:38;;;;;;;4.40;4.20;;;7.00;99.90;;;;;;5100048;23;20029;-86
2023/01/18 12:16:19;;;;;;;3.80;3.70;;;7.00;99.90;;;;;;5129601;22;20053;-86
2023/01/18 12:19:07;;;;;;;3.83;3.83;;;6.90;99.90;;;;;;5200605;22;20058;-86
2023/01/18 12:21:35;;;;;;;3.45;3.35;;;6.80;99.90;;;;;;5183509;22;20027;-86
2023/01/18 12:24:28;;;;;;;3.38;3.38;;;6.70;99.90;;;;;;5224881;22;20054;-86
2023/01/18 12:27:15;;;;;;;3.05;2.83;;;6.80;99.90;;;;;;5201815;22;20038;-86
2023/01/18 12:30:12;;;;;;;2.70;2.70;;;6.90;99.90;;;;;;5205071;22;20027;-86
2023/01/18 12:32:43;;;;;;;3.55;3.55;;;6.90;99.90;;;;;;5212036;22;20054;-86
2023/01/18 12:35:15;;;;;;;2.80;2.80;;;7.00;99.90;;;;;;5225238;22;20083;-86
2023/01/18 12:37:56;;;;;;;3.47;3.47;;;7.10;99.90;;;;;;5197642;22;20089;-86
2023/01/18 12:40:52;;;;;;;3.88;3.78;;;7.10;99.90;;;;;;5205997;22;20022;-86
2023/01/18 12:43:28;;;;;;;2.90;2.90;;;7.20;99.90;;;;;;5204615;22;20026;-87
2023/01/18 12:46:02;;;;;;;2.65;2.65;;;7.10;99.90;;;;;;5232977;22;20025;-87
2023/01/18 12:48:31;;;;;;;8.40;8.07;;;7.10;99.90;;;;;;5213443;22;20210;-87
2023/01/18 12:50:54;;;;;;;4.82;4.72;;;7.10;99.90;;;;;;5231572;22;20098;-86
2023/01/18 12:53:15;;;;;;;4.13;4.03;;;7.00;99.90;;;;;;5223955;22;20034;-87
2023/01/18 12:55:38;;;;;;;3.72;3.72;;;6.80;99.90;;;;;;5218751;22;20174;-87
2023/01/18 12:58:01;;;;;;;3.70;3.70;;;6.60;99.90;;;;;;5212631;22;20026;-87
2023/01/18 13:00:30;;;;;;;3.72;3.60;;;6.50;99.90;;;;;;5222307;22;20021;-87
2023/01/18 13:02:55;;;;;;;5.97;5.80;;;6.50;99.90;;;;;;5232446;22;20025;-87
2023/01/18 13:05:27;;;;;;;8.68;8.20;;;6.40;99.90;;;;;;5213004;22;20037;-87
2023/01/18 13:08:05;;;;;;;6.70;6.55;;;6.40;99.90;;;;;;5202272;22;20034;-87
2023/01/18 13:10:27;;;;;;;4.47;4.38;;;6.40;99.90;;;;;;5235932;22;20022;-87
2023/01/18 13:12:49;;;;;;;5.18;4.95;;;6.40;99.90;;;;;;5225775;22;20062;-87
2023/01/18 13:15:43;;;;;;;4.15;4.05;;;6.40;99.90;;;;;;5200534;22;20235;-87
2023/01/18 13:18:20;;;;;;;5.10;4.97;;;6.40;99.90;;;;;;5187304;22;20050;-87
2023/01/18 13:20:55;;;;;;;4.45;4.25;;;6.40;99.90;;;;;;5187848;22;20037;-87
2023/01/18 13:23:41;;;;;;;8.00;7.45;;;6.50;99.90;;;;;;5197311;22;20242;-86